Погода Пайсандуна неделю

Парана, Бразилия

20 - 26 июля
  • 20июля
    Сегодня
    +15°
    +28°
    Ясно и безоблачно
    ВремяПогодаТемператураВлажностьДавлениеВетер, м/сВероятность осадков
    00:00Ясно и безоблачно+19°C75 %734 мм2.1 м/с5 %
    03:00Ясно и безоблачно+18°C79 %733 мм2.4 м/с5 %
    06:00Ясно и безоблачно+15°C89 %733 мм2.0 м/с5 %
    09:00Ясно и безоблачно+20°C75 %735 мм1.7 м/с5 %
    12:00Ясно и безоблачно+27°C45 %735 мм2.1 м/с5 %
    15:00Ясно и безоблачно+27°C32 %733 мм1.4 м/с5 %
    18:00Ясно и безоблачно+22°C53 %732 мм2.4 м/с5 %
    21:00Ясно и безоблачно+20°C59 %732 мм1.8 м/с5 %
  • 21июля
    Воскресенье
    +15°
    +28°
    Ясно и безоблачно
    ВремяПогодаТемператураВлажностьДавлениеВетер, м/сВероятность осадков
    00:00Ясно и безоблачно+18°C57 %732 мм3.3 м/с5 %
    03:00Ясно и безоблачно+18°C65 %731 мм3.0 м/с5 %
    06:00Ясно и безоблачно+14°C69 %731 мм2.4 м/с5 %
    09:00Ясно и безоблачно+19°C55 %733 мм1.6 м/с5 %
    12:00Ясно и безоблачно+26°C44 %734 мм1.9 м/с5 %
    15:00Ясно и безоблачно+27°C39 %732 мм1.5 м/с5 %
    18:00Ясно и безоблачно+23°C61 %731 мм1.8 м/с5 %
    21:00Ясно и безоблачно+21°C82 %732 мм1.6 м/с5 %
  • 22июля
    Понедельник
    +16°
    +29°
    Ясно и безоблачно
    ВремяПогодаТемператураВлажностьДавлениеВетер, м/сВероятность осадков
    00:00Ясно и безоблачно+19°C80 %733 мм2.4 м/с5 %
    03:00Ясно и безоблачно+17°C87 %732 мм2.3 м/с5 %
    06:00Ясно и безоблачно+16°C86 %732 мм2.1 м/с5 %
    09:00Ясно и безоблачно+21°C73 %734 мм1.4 м/с5 %
    12:00Ясно и безоблачно+28°C51 %735 мм0.4 м/с5 %
    15:00Ясно и безоблачно+29°C39 %732 мм0.9 м/с5 %
    18:00Ясно и безоблачно+26°C54 %733 мм1.7 м/с5 %
    21:00Ясно и безоблачно+22°C68 %733 мм1.6 м/с5 %
  • 23июля
    Вторник
    +18°
    +29°
    Практически безоблачно
    ВремяПогодаТемператураВлажностьДавлениеВетер, м/сВероятность осадков
    00:00Ясно и безоблачно+20°C66 %733 мм2.5 м/с5 %
    03:00Ясно и безоблачно+17°C74 %733 мм2.4 м/с5 %
    06:00Ясно и безоблачно+16°C79 %733 мм2.4 м/с5 %
    09:00Ясно и безоблачно+21°C66 %735 мм1.9 м/с5 %
    12:00Ясно и безоблачно+27°C40 %735 мм2.9 м/с5 %
    15:00Практически безоблачно+28°C33 %733 мм1.9 м/с5 %
    18:00Ясно и безоблачно+23°C56 %732 мм2.5 м/с5 %
    21:00Небольшая облачность+21°C57 %732 мм1.9 м/с5 %
Мы используем cookies
Соглашаюсь